Time;durP1;ratioP1;P1;durP2;ratioP2;P2;SDS_P1;SDS_P2;PMS_P1;PMS_P2;Temp;Humidity;BMP_temperature;BMP_pressure;BME280_temperature;BME280_humidity;BME280_pressure;Samples;Min_cycle;Max_cycle;Signal;HPM_P1;HPM_P2
2023/08/10 00:01:41;;;;;;;6.10;5.70;;;;;;;12.97;100.00;101461.44;6175641;23;20030;-68
2023/08/10 00:04:09;;;;;;;6.55;5.47;;;;;;;12.93;100.00;101484.47;6175811;23;20028;-69
2023/08/10 00:06:37;;;;;;;5.50;5.00;;;;;;;12.89;100.00;101463.59;6173690;23;20393;-70
2023/08/10 00:09:04;;;;;;;5.38;5.07;;;;;;;12.78;100.00;101451.81;6170393;23;20026;-69
2023/08/10 00:11:30;;;;;;;5.88;5.47;;;;;;;12.69;100.00;101447.00;6173626;23;20089;-69
2023/08/10 00:13:57;;;;;;;5.78;5.32;;;;;;;12.51;100.00;101417.16;6194817;23;20027;-69
2023/08/10 00:16:23;;;;;;;5.70;5.40;;;;;;;12.75;100.00;101459.88;6200306;23;20020;-68
2023/08/10 00:18:50;;;;;;;5.50;5.20;;;;;;;12.65;100.00;101450.72;6198717;23;20049;-68
2023/08/10 00:21:16;;;;;;;5.95;5.28;;;;;;;12.52;100.00;101421.47;6199416;23;20020;-69
2023/08/10 00:23:43;;;;;;;5.38;4.95;;;;;;;12.14;100.00;101362.81;6203342;23;21621;-69
2023/08/10 00:26:09;;;;;;;5.45;5.15;;;;;;;12.88;100.00;101469.81;6207797;23;20076;-69
2023/08/10 00:28:36;;;;;;;5.47;5.18;;;;;;;12.74;100.00;101449.41;6201449;23;20470;-68
2023/08/10 00:31:03;;;;;;;5.90;5.45;;;;;;;12.82;100.00;101483.28;6196982;23;20020;-68
2023/08/10 00:33:30;;;;;;;5.63;5.32;;;;;;;11.64;100.00;101277.47;6160780;23;20115;-69
2023/08/10 00:36:09;;;;;;;5.55;5.20;;;;;;;12.54;100.00;101422.25;6197360;23;20028;-68
2023/08/10 00:38:40;;;;;;;6.05;5.55;;;;;;;12.98;100.00;101485.06;6186013;23;20020;-69
2023/08/10 00:41:07;;;;;;;5.88;5.30;;;;;;;12.76;100.00;101429.94;6176241;23;20026;-71
2023/08/10 00:43:34;;;;;;;5.70;5.30;;;;;;;13.13;100.00;101488.72;6200794;23;20074;-69
2023/08/10 00:46:01;;;;;;;5.88;5.40;;;;;;;12.18;100.00;101343.31;6182866;23;20019;-68
2023/08/10 00:48:28;;;;;;;6.10;5.70;;;;;;;13.22;100.00;101494.47;6198428;22;20047;-68
2023/08/10 00:50:54;;;;;;;11.23;5.45;;;;;;;12.81;100.00;101405.16;6186751;23;20099;-69
2023/08/10 00:53:21;;;;;;;5.90;5.50;;;;;;;13.32;100.00;101480.75;6178442;23;20099;-69
2023/08/10 00:55:51;;;;;;;6.05;5.65;;;;;;;13.32;100.00;101480.75;6200589;23;20078;-68
2023/08/10 00:58:21;;;;;;;5.50;5.20;;;;;;;13.36;100.00;101482.31;6203376;23;20044;-71
2023/08/10 01:00:48;;;;;;;5.03;4.72;;;;;;;13.09;100.00;101437.13;6202404;23;20044;-69
2023/08/10 01:03:15;;;;;;;5.72;4.90;;;;;;;12.99;100.00;101422.72;6199292;23;20087;-69
2023/08/10 01:05:57;;;;;;;5.30;5.00;;;;;;;13.36;100.00;101481.47;6168857;23;20029;-69
2023/08/10 01:08:43;;;;;;;5.90;5.50;;;;;;;13.46;100.00;101472.16;6171662;23;20028;-68
2023/08/10 01:11:38;;;;;;;5.53;5.22;;;;;;;13.48;100.00;101470.28;6190575;23;20660;-69
2023/08/10 01:14:31;;;;;;;5.40;5.10;;;;;;;13.46;100.00;101452.84;6197949;23;20638;-69
2023/08/10 01:17:00;;;;;;;5.53;5.22;;;;;;;13.44;100.00;101457.34;6148944;23;20039;-68
2023/08/10 01:19:32;;;;;;;5.88;5.40;;;;;;;13.36;100.00;101463.00;6196513;23;20034;-69
2023/08/10 01:22:17;;;;;;;5.65;5.22;;;;;;;13.26;100.00;101452.06;6199626;22;20625;-69
2023/08/10 01:24:44;;;;;;;5.72;5.10;;;;;;;13.25;100.00;101463.53;6198919;23;20030;-69
2023/08/10 01:27:12;;;;;;;7.78;5.15;;;;;;;13.23;100.00;101464.53;6201365;23;20294;-69
2023/08/10 01:29:38;;;;;;;5.70;5.25;;;;;;;12.87;100.00;101399.59;6178191;23;20017;-69
2023/08/10 01:32:11;;;;;;;5.40;5.10;;;;;;;13.25;100.00;101463.53;6171693;23;21415;-69
2023/08/10 01:34:37;;;;;;;5.40;5.10;;;;;;;13.22;100.00;101465.47;6202985;23;20015;-69
2023/08/10 01:37:05;;;;;;;6.03;5.63;;;;;;;13.20;100.00;101467.34;6197633;23;20036;-69
2023/08/10 01:39:32;;;;;;;5.55;5.25;;;;;;;12.92;100.00;101424.78;6159225;23;20099;-70
2023/08/10 01:41:58;;;;;;;5.22;4.90;;;;;;;13.02;100.00;101432.22;6175538;23;20075;-69
2023/08/10 01:44:25;;;;;;;5.22;4.90;;;;;;;13.31;100.00;101472.94;6171057;23;20028;-69
2023/08/10 01:46:53;;;;;;;5.20;4.90;;;;;;;13.42;100.00;101449.50;6198623;23;20018;-69
2023/08/10 01:49:23;;;;;;;5.68;5.25;;;;;;;13.32;100.00;101416.66;6185035;23;20020;-69
2023/08/10 01:51:51;;;;;;;5.50;5.20;;;;;;;13.26;100.00;101401.97;6201984;23;20026;-69
2023/08/10 01:54:19;;;;;;;5.45;5.10;;;;;;;12.94;100.00;101361.47;6173768;23;20025;-70
2023/08/10 01:56:45;;;;;;;5.32;4.95;;;;;;;13.00;100.00;101390.13;6200933;23;20021;-69
2023/08/10 01:59:12;;;;;;;5.57;5.18;;;;;;;13.31;100.00;101450.06;6173649;23;20016;-70
2023/08/10 02:01:38;;;;;;;5.93;5.30;;;;;;;13.01;100.00;101412.94;6201638;23;20043;-69
2023/08/10 02:04:05;;;;;;;5.70;5.30;;;;;;;12.77;100.00;101378.16;6179537;23;20012;-69
2023/08/10 02:06:37;;;;;;;5.65;5.25;;;;;;;13.27;100.00;101458.16;6142039;23;20087;-69
2023/08/10 02:09:05;;;;;;;5.38;5.07;;;;;;;13.22;100.00;101473.38;6202426;23;20091;-69
2023/08/10 02:11:32;;;;;;;5.22;4.93;;;;;;;12.84;100.00;101415.56;6186022;23;20083;-70
2023/08/10 02:13:59;;;;;;;5.40;5.00;;;;;;;12.93;100.00;101446.72;6199768;23;20075;-69
2023/08/10 02:16:25;;;;;;;6.07;5.57;;;;;;;12.82;100.00;101428.81;6185214;23;20705;-70
2023/08/10 02:18:52;;;;;;;5.18;4.88;;;;;;;12.83;100.00;101456.00;6195908;23;20027;-69
2023/08/10 02:21:18;;;;;;;5.78;5.38;;;;;;;12.63;100.00;101439.41;6176002;23;20036;-69
2023/08/10 02:23:45;;;;;;;6.03;5.50;;;;;;;12.69;100.00;101465.44;6172698;23;20465;-70
2023/08/10 02:26:14;;;;;;;5.53;5.22;;;;;;;12.29;100.00;101412.06;6199159;23;20482;-69
2023/08/10 02:28:40;;;;;;;5.40;5.10;;;;;;;12.69;100.00;101494.41;6181952;23;20024;-70
2023/08/10 02:31:07;;;;;;;5.53;5.22;;;;;;;12.27;100.00;101437.63;6176914;23;20532;-70
2023/08/10 02:33:33;;;;;;;5.10;4.80;;;;;;;12.69;100.00;101507.59;6170340;23;20028;-70
2023/08/10 02:36:00;;;;;;;5.68;5.28;;;;;;;12.70;100.00;101504.00;6196966;23;20087;-69
2023/08/10 02:38:26;;;;;;;5.40;5.00;;;;;;;12.67;100.00;101506.81;6187906;23;20084;-69
2023/08/10 02:40:53;;;;;;;5.82;5.40;;;;;;;12.60;100.00;101489.56;6194933;23;20032;-69
2023/08/10 02:43:19;;;;;;;5.68;5.38;;;;;;;12.41;100.00;101457.16;6169704;23;20035;-69
2023/08/10 02:45:46;;;;;;;5.65;5.28;;;;;;;12.66;100.00;101509.50;6201223;23;20084;-69
2023/08/10 02:48:12;;;;;;;6.03;5.55;;;;;;;12.59;100.00;101501.06;6181421;23;20369;-69
2023/08/10 02:50:38;;;;;;;5.90;5.35;;;;;;;12.54;100.00;101508.31;6203132;23;20031;-69
2023/08/10 02:53:05;;;;;;;5.57;5.07;;;;;;;12.27;100.00;101469.19;6196967;23;20008;-69
2023/08/10 02:55:31;;;;;;;5.10;4.80;;;;;;;11.97;100.00;101435.50;6201884;23;20032;-70
2023/08/10 02:57:58;;;;;;;5.30;4.95;;;;;;;12.34;100.00;101504.81;6199647;23;20021;-69
2023/08/10 03:00:24;;;;;;;5.63;5.13;;;;;;;12.11;100.00;101486.63;6205960;22;20103;-69
2023/08/10 03:02:51;;;;;;;5.30;5.00;;;;;;;11.64;100.00;101408.06;6193309;23;20631;-72
2023/08/10 03:05:20;;;;;;;5.80;5.32;;;;;;;11.64;100.00;101429.09;6202327;23;20418;-70
2023/08/10 03:07:48;;;;;;;5.72;5.22;;;;;;;11.71;100.00;101465.56;6197866;23;20008;-69
2023/08/10 03:10:15;;;;;;;5.72;5.32;;;;;;;11.96;100.00;101517.94;6171519;23;20051;-69
2023/08/10 03:12:41;;;;;;;5.63;5.30;;;;;;;11.82;100.00;101509.78;6200505;23;20040;-69
2023/08/10 03:15:09;;;;;;;5.78;5.32;;;;;;;11.83;100.00;101529.94;6203310;23;20022;-71
2023/08/10 03:17:36;;;;;;;5.70;5.40;;;;;;;11.15;100.00;101429.50;6176231;23;20035;-68
2023/08/10 03:20:06;;;;;;;5.13;4.90;;;;;;;11.66;100.00;101541.16;6196897;23;20027;-69
2023/08/10 03:22:33;;;;;;;5.78;5.38;;;;;;;10.64;100.00;101386.13;6173425;23;20043;-68
2023/08/10 03:24:59;;;;;;;5.65;5.15;;;;;;;11.54;100.00;101557.47;6195546;23;20048;-70
2023/08/10 03:27:26;;;;;;;5.43;5.13;;;;;;;11.37;100.00;101537.16;6183292;23;20071;-69
2023/08/10 03:29:52;;;;;;;5.68;5.28;;;;;;;11.36;100.00;101545.94;6199560;23;20098;-69
2023/08/10 03:32:18;;;;;;;5.30;5.00;;;;;;;10.58;100.00;101422.22;6158915;23;20022;-69
2023/08/10 03:34:45;;;;;;;5.43;5.13;;;;;;;11.04;100.00;101500.84;6165857;23;20076;-69
2023/08/10 03:37:11;;;;;;;5.70;5.30;;;;;;;11.37;100.00;101566.06;6191818;23;20034;-69
2023/08/10 03:39:38;;;;;;;5.50;5.13;;;;;;;11.35;100.00;101563.50;6144342;23;20517;-70
2023/08/10 03:42:04;;;;;;;6.10;5.70;;;;;;;11.15;100.00;101543.31;6175413;23;20024;-70
2023/08/10 03:44:31;;;;;;;5.10;4.80;;;;;;;11.10;100.00;101526.88;6183078;23;20036;-70
2023/08/10 03:46:57;;;;;;;7.45;5.10;;;;;;;11.45;100.00;101589.41;6173688;23;20023;-69
2023/08/10 03:49:24;;;;;;;5.47;5.15;;;;;;;11.46;100.00;101602.47;6174545;23;20629;-70
2023/08/10 03:51:51;;;;;;;5.55;5.25;;;;;;;11.54;100.00;101616.16;6195133;23;20063;-69
2023/08/10 03:54:17;;;;;;;5.80;5.40;;;;;;;11.24;100.00;101564.84;6159398;23;20024;-69
2023/08/10 03:56:44;;;;;;;5.72;5.32;;;;;;;11.56;100.00;101614.31;6196083;23;20501;-69
2023/08/10 03:59:10;;;;;;;5.57;5.18;;;;;;;11.53;100.00;101614.47;6180491;23;20020;-70
2023/08/10 04:01:37;;;;;;;5.85;5.32;;;;;;;10.93;100.00;101526.72;6204250;23;20099;-70
2023/08/10 04:04:04;;;;;;;5.47;5.07;;;;;;;11.22;100.00;101577.22;6199908;23;20036;-70
2023/08/10 04:06:31;;;;;;;9.43;5.18;;;;;;;11.36;100.00;101603.78;6204413;23;20032;-69
2023/08/10 04:08:57;;;;;;;5.70;5.10;;;;;;;10.93;100.00;101531.97;6203590;23;20027;-69
2023/08/10 04:11:24;;;;;;;5.38;4.97;;;;;;;11.34;100.00;101597.72;6170838;23;20028;-69
2023/08/10 04:13:51;;;;;;;5.70;5.28;;;;;;;11.45;100.00;101616.56;6199449;23;20043;-69
2023/08/10 04:16:17;;;;;;;5.63;5.18;;;;;;;11.12;100.00;101566.22;6208703;23;20423;-69
2023/08/10 04:18:44;;;;;;;5.75;5.25;;;;;;;10.98;100.00;101548.38;6203056;23;20099;-69
2023/08/10 04:21:11;;;;;;;5.20;4.90;;;;;;;11.40;100.00;101634.25;6199491;23;20052;-69
2023/08/10 04:23:40;;;;;;;5.75;5.35;;;;;;;11.07;100.00;101548.03;6202706;23;20125;-69
2023/08/10 04:26:07;;;;;;;5.55;5.25;;;;;;;10.97;100.00;101525.69;6198096;23;20028;-69
2023/08/10 04:28:36;;;;;;;17.30;5.43;;;;;;;11.72;100.00;101638.19;6185237;23;20042;-69
2023/08/10 04:31:03;;;;;;;5.22;4.90;;;;;;;11.40;100.00;101567.72;6201737;23;20042;-69
2023/08/10 04:33:31;;;;;;;5.50;5.18;;;;;;;11.23;100.00;101532.47;6162944;23;20349;-70
2023/08/10 04:35:57;;;;;;;5.68;5.35;;;;;;;12.13;100.00;101643.50;6198769;22;20081;-69
2023/08/10 04:38:24;;;;;;;5.80;5.30;;;;;;;12.52;100.00;101631.28;6181803;23;20601;-69
2023/08/10 04:40:50;;;;;;;5.78;5.25;;;;;;;13.22;100.00;101634.16;6198662;23;20072;-69
2023/08/10 04:43:17;;;;;;;5.22;4.93;;;;;;;14.05;100.00;101662.59;6181971;23;20015;-69
2023/08/10 04:45:44;;;;;;;5.30;5.00;;;;;;;14.58;100.00;101615.81;6202095;23;20095;-70
2023/08/10 04:48:11;;;;;;;5.28;4.90;;;;;;;14.83;100.00;101574.84;6204772;23;20920;-69
2023/08/10 04:50:37;;;;;;;5.43;5.13;;;;;;;14.25;100.00;101452.13;6198443;23;20020;-70
2023/08/10 04:53:04;;;;;;;5.60;5.20;;;;;;;13.86;100.00;101412.00;6171942;23;19997;-69
2023/08/10 04:55:30;;;;;;;5.60;5.22;;;;;;;13.53;100.00;101383.00;6179248;23;20032;-69
2023/08/10 04:57:57;;;;;;;8.07;5.50;;;;;;;13.52;100.00;101426.16;6169183;23;20020;-69
2023/08/10 05:00:23;;;;;;;4.80;4.60;;;;;;;13.62;100.00;101459.00;6175678;23;20135;-69
2023/08/10 05:02:53;;;;;;;5.35;5.05;;;;;;;13.30;100.00;101429.06;6205395;23;20016;-69
2023/08/10 05:05:19;;;;;;;6.10;5.60;;;;;;;13.46;100.00;101479.22;6202785;23;20028;-69
2023/08/10 05:07:46;;;;;;;6.63;5.10;;;;;;;13.17;100.00;101449.91;6202384;23;20043;-69
2023/08/10 05:10:13;;;;;;;6.47;5.25;;;;;;;13.61;100.00;101499.53;6199243;23;20091;-70
2023/08/10 05:12:39;;;;;;;5.95;5.35;;;;;;;12.34;100.00;101274.97;6155548;23;20037;-70
2023/08/10 05:15:07;;;;;;;5.30;5.00;;;;;;;13.45;100.00;101435.31;6197048;23;20016;-69
2023/08/10 05:17:36;;;;;;;5.72;5.43;;;;;;;13.66;100.00;101447.38;6171858;23;20463;-70
2023/08/10 05:20:08;;;;;;;5.68;5.28;;;;;;;14.08;100.00;101476.81;6199510;23;20032;-69
2023/08/10 05:22:41;;;;;;;6.20;5.20;;;;;;;13.74;100.00;101388.94;6200388;23;20143;-69
2023/08/10 05:25:08;;;;;;;10.25;5.55;;;;;;;13.92;99.00;101401.09;6141785;23;20048;-70
2023/08/10 05:27:37;;;;;;;5.70;5.30;;;;;;;13.60;97.43;101318.47;6200843;23;20016;-70
2023/08/10 05:30:08;;;;;;;5.72;5.43;;;;;;;15.28;96.32;101497.31;6206255;23;20084;-70
2023/08/10 05:32:36;;;;;;;12.25;5.60;;;;;;;16.13;92.46;101465.72;6177406;23;20020;-70
2023/08/10 05:35:03;;;;;;;6.07;5.65;;;;;;;17.07;87.07;101409.25;6200893;23;20028;-70
2023/08/10 05:37:30;;;;;;;6.30;5.80;;;;;;;17.99;81.67;101364.78;6201381;23;20019;-69
2023/08/10 05:39:56;;;;;;;7.65;6.50;;;;;;;18.44;77.19;101256.91;6207861;23;20158;-69
2023/08/10 05:42:23;;;;;;;6.30;5.90;;;;;;;19.08;73.50;101223.59;6202260;23;20075;-70
2023/08/10 05:44:49;;;;;;;6.07;5.78;;;;;;;18.87;71.26;101154.34;6204853;23;20502;-70
2023/08/10 05:47:17;;;;;;;6.07;5.57;;;;;;;18.39;71.51;101098.78;6207985;22;20031;-70
2023/08/10 05:49:44;;;;;;;5.65;5.35;;;;;;;18.45;72.69;101178.00;6203295;23;20028;-72
2023/08/10 05:52:10;;;;;;;6.22;5.93;;;;;;;19.05;72.13;101203.41;6172589;23;20018;-70
2023/08/10 05:54:36;;;;;;;6.75;6.28;;;;;;;19.50;69.68;101163.41;6204544;23;20096;-70
2023/08/10 05:57:05;;;;;;;6.13;5.75;;;;;;;19.75;68.18;101124.09;6198847;23;20908;-70
2023/08/10 05:59:31;;;;;;;6.60;6.15;;;;;;;20.24;65.05;101071.91;6203668;23;20020;-70
2023/08/10 06:01:58;;;;;;;6.55;5.95;;;;;;;20.46;63.89;101028.22;6198532;23;20035;-69
2023/08/10 06:04:25;;;;;;;6.75;6.18;;;;;;;20.40;62.51;100942.63;6173084;23;20024;-69
2023/08/10 06:06:51;;;;;;;6.85;6.15;;;;;;;20.05;61.69;100923.50;6201906;23;20015;-70
2023/08/10 06:09:19;;;;;;;6.10;5.70;;;;;;;19.75;62.62;100937.69;6170076;23;20462;-70
2023/08/10 06:11:46;;;;;;;6.65;6.10;;;;;;;19.36;63.62;100950.75;6169881;23;20036;-70
2023/08/10 06:14:28;;;;;;;6.80;6.10;;;;;;;18.68;64.45;100931.59;6183219;23;20023;-70
2023/08/10 06:16:54;;;;;;;6.43;5.90;;;;;;;17.82;66.70;100939.38;6200105;23;20079;-69
2023/08/10 06:19:21;;;;;;;6.10;5.70;;;;;;;17.97;67.52;101021.47;6203664;23;20023;-71
2023/08/10 06:21:47;;;;;;;7.97;5.75;;;;;;;17.64;69.12;101076.16;6201716;23;20023;-69
2023/08/10 06:24:16;;;;;;;6.68;6.22;;;;;;;17.67;70.44;101134.34;6196853;23;20040;-70
2023/08/10 06:26:43;;;;;;;5.97;5.68;;;;;;;17.69;70.85;101162.44;6184036;23;20028;-71
2023/08/10 06:29:09;;;;;;;6.28;5.95;;;;;;;17.67;71.56;101179.47;6172738;23;20020;-69
2023/08/10 06:31:35;;;;;;;7.95;5.90;;;;;;;17.34;71.81;101147.34;6203258;23;20109;-68
2023/08/10 06:34:05;;;;;;;6.38;5.88;;;;;;;17.21;71.15;101109.41;6188883;23;20139;-68
2023/08/10 06:36:33;;;;;;;6.80;6.00;;;;;;;17.71;71.27;101188.88;6199545;23;20489;-68
2023/08/10 06:39:00;;;;;;;6.40;5.85;;;;;;;17.73;71.50;101194.94;6200803;23;20020;-69
2023/08/10 06:41:26;;;;;;;8.30;7.40;;;;;;;17.59;70.73;101144.69;6198811;23;20818;-69
2023/08/10 06:43:53;;;;;;;6.20;5.82;;;;;;;17.60;70.89;101159.63;6198954;23;20924;-69
2023/08/10 06:46:19;;;;;;;5.72;5.40;;;;;;;17.52;71.84;101192.06;6197193;23;20091;-70
2023/08/10 06:48:47;;;;;;;5.93;5.53;;;;;;;17.47;71.78;101189.75;6171721;22;20521;-69
2023/08/10 06:51:14;;;;;;;6.05;5.65;;;;;;;17.18;71.94;101186.56;6196932;23;20043;-69
2023/08/10 06:53:40;;;;;;;5.68;5.38;;;;;;;17.27;71.71;101190.34;6202231;23;20023;-69
2023/08/10 06:56:07;;;;;;;5.68;5.38;;;;;;;17.61;70.37;101196.69;6199171;23;20038;-69
2023/08/10 06:58:36;;;;;;;10.05;5.53;;;;;;;17.58;70.60;101206.66;6174075;23;20028;-69
2023/08/10 07:01:05;;;;;;;6.20;5.70;;;;;;;17.26;71.13;101163.00;6194183;23;20123;-69
2023/08/10 07:03:35;;;;;;;5.88;5.47;;;;;;;17.91;70.99;101249.34;6193594;23;20092;-69
2023/08/10 07:06:01;;;;;;;5.82;5.53;;;;;;;17.68;69.28;101176.69;6172918;23;20030;-69
2023/08/10 07:08:28;;;;;;;5.70;5.40;;;;;;;17.53;69.22;101130.06;6203551;23;20091;-69
2023/08/10 07:10:54;;;;;;;5.70;5.30;;;;;;;17.64;69.86;101179.69;6203620;23;20028;-69
2023/08/10 07:13:21;;;;;;;7.00;6.60;;;;;;;17.67;69.69;101195.38;6197238;23;20027;-71
2023/08/10 07:15:48;;;;;;;5.80;5.38;;;;;;;17.79;70.20;101206.91;6202156;23;20048;-70
2023/08/10 07:18:15;;;;;;;5.70;5.40;;;;;;;17.98;69.62;101236.47;6201960;23;20079;-68
2023/08/10 07:20:41;;;;;;;5.57;5.28;;;;;;;18.16;68.77;101206.81;6204261;23;20039;-69
2023/08/10 07:23:08;;;;;;;8.45;5.82;;;;;;;18.29;67.77;101187.16;6198644;23;20018;-69
2023/08/10 07:25:36;;;;;;;5.43;5.13;;;;;;;18.17;64.90;101049.13;6195591;23;20035;-70
2023/08/10 07:28:06;;;;;;;5.57;5.28;;;;;;;18.27;64.73;101076.66;6171727;23;20083;-71
2023/08/10 07:30:33;;;;;;;5.20;4.93;;;;;;;18.34;65.38;101104.41;6201333;23;20822;-69
2023/08/10 07:32:59;;;;;;;6.00;5.53;;;;;;;18.56;64.64;101105.41;6172038;23;20028;-71
2023/08/10 07:35:26;;;;;;;5.40;5.10;;;;;;;18.56;63.81;101063.69;6141220;23;20025;-70
2023/08/10 07:37:53;;;;;;;5.95;5.53;;;;;;;18.04;63.04;100975.72;6144449;23;20021;-70
2023/08/10 07:40:20;;;;;;;5.47;5.18;;;;;;;18.29;63.58;101033.06;6190382;23;20034;-70
2023/08/10 07:42:46;;;;;;;5.90;5.50;;;;;;;18.72;62.79;101082.78;6144283;23;20459;-69
2023/08/10 07:45:13;;;;;;;6.05;5.60;;;;;;;17.98;61.41;100898.34;6143245;23;20084;-69
2023/08/10 07:47:39;;;;;;;5.43;5.10;;;;;;;18.23;59.73;100882.13;6198613;23;20035;-70
2023/08/10 07:50:06;;;;;;;6.05;5.65;;;;;;;18.68;61.24;101033.50;6171815;23;20016;-68
2023/08/10 07:52:35;;;;;;;5.40;5.10;;;;;;;18.62;59.12;100930.31;6183674;23;20116;-69
2023/08/10 07:55:02;;;;;;;5.78;5.40;;;;;;;19.02;58.60;100960.75;6198789;23;20088;-70
2023/08/10 07:57:29;;;;;;;5.50;5.20;;;;;;;18.58;57.22;100813.72;6199595;23;20015;-69
2023/08/10 07:59:56;;;;;;;5.32;5.10;;;;;;;18.91;58.42;100974.94;6202269;23;20012;-70
2023/08/10 08:02:23;;;;;;;5.80;5.40;;;;;;;18.93;57.93;100931.28;6181984;23;20015;-68
2023/08/10 08:04:49;;;;;;;5.85;5.35;;;;;;;19.01;58.86;101007.78;6197468;23;20028;-69
2023/08/10 08:07:19;;;;;;;5.90;5.50;;;;;;;18.95;58.13;100928.50;6180600;23;20036;-68
2023/08/10 08:09:45;;;;;;;5.35;5.05;;;;;;;19.27;59.82;101080.13;6198642;23;20087;-68
2023/08/10 08:12:12;;;;;;;5.90;5.50;;;;;;;19.49;58.82;101052.56;6175063;23;20467;-71
2023/08/10 08:14:39;;;;;;;5.68;5.30;;;;;;;19.71;58.88;101064.09;6195474;23;20018;-69
2023/08/10 08:17:05;;;;;;;5.72;5.43;;;;;;;19.60;56.78;100971.75;6161688;23;20023;-70
2023/08/10 08:19:33;;;;;;;6.07;5.47;;;;;;;19.88;55.20;100943.59;6161183;23;20024;-70
2023/08/10 08:21:59;;;;;;;6.85;5.72;;;;;;;19.68;54.89;100904.53;6196178;23;20020;-70
2023/08/10 08:24:27;;;;;;;5.60;5.30;;;;;;;19.42;56.27;100941.41;6172235;23;20028;-70
2023/08/10 08:26:54;;;;;;;5.53;5.10;;;;;;;19.86;56.11;101011.31;6198312;23;20489;-71
2023/08/10 08:29:20;;;;;;;6.30;5.90;;;;;;;19.79;55.81;100996.84;6195524;23;20015;-69
2023/08/10 08:31:47;;;;;;;5.38;5.07;;;;;;;20.14;54.31;100964.44;6202020;23;20367;-69
2023/08/10 08:34:14;;;;;;;5.25;5.05;;;;;;;20.10;54.05;100931.06;6195460;23;20023;-70
2023/08/10 08:36:41;;;;;;;5.95;5.55;;;;;;;20.37;53.75;100977.56;6200623;23;20616;-70
2023/08/10 08:39:09;;;;;;;5.70;5.20;;;;;;;20.37;51.91;100889.63;6200982;23;20008;-70
2023/08/10 08:41:38;;;;;;;5.35;5.05;;;;;;;19.51;52.45;100787.06;6200528;23;20075;-70
2023/08/10 08:44:06;;;;;;;6.75;5.43;;;;;;;20.73;53.42;101029.47;6199717;23;20041;-70
2023/08/10 08:46:33;;;;;;;5.30;5.00;;;;;;;20.90;52.85;101017.25;6197337;23;20533;-69
2023/08/10 08:49:04;;;;;;;5.60;5.30;;;;;;;20.85;53.04;101023.00;6201610;23;20035;-69
2023/08/10 08:51:30;;;;;;;6.10;5.60;;;;;;;20.55;50.16;100786.63;6201781;23;20055;-69
2023/08/10 08:54:01;;;;;;;5.20;5.00;;;;;;;20.60;49.85;100786.22;6193334;23;20024;-69
2023/08/10 08:56:28;;;;;;;5.50;5.10;;;;;;;20.39;49.61;100811.19;6168627;23;20029;-68
2023/08/10 08:58:58;;;;;;;5.75;5.28;;;;;;;20.21;50.27;100848.34;6201742;23;20028;-69
2023/08/10 09:01:26;;;;;;;5.70;5.40;;;;;;;20.50;49.36;100843.00;6200146;23;20597;-69
2023/08/10 09:03:53;;;;;;;5.53;5.22;;;;;;;20.37;51.11;100914.44;6196227;23;20065;-69
2023/08/10 09:06:19;;;;;;;5.50;5.20;;;;;;;20.45;50.90;100933.25;6202717;23;20038;-69
2023/08/10 09:08:46;;;;;;;5.88;5.40;;;;;;;20.92;49.63;100956.59;6177400;23;20042;-71
2023/08/10 09:11:13;;;;;;;5.50;5.20;;;;;;;20.96;50.28;101030.03;6201404;23;20504;-68
2023/08/10 09:13:39;;;;;;;6.75;5.60;;;;;;;20.53;49.70;100968.06;6157546;23;20020;-70
2023/08/10 09:16:11;;;;;;;5.53;5.25;;;;;;;20.83;49.48;101064.16;6194640;23;20079;-71
2023/08/10 09:18:41;;;;;;;5.70;5.40;;;;;;;21.15;49.78;101095.06;6181487;23;20655;-70
2023/08/10 09:21:17;;;;;;;5.80;5.40;;;;;;;21.15;50.78;101125.28;6180755;23;20091;-69
2023/08/10 09:23:49;;;;;;;5.60;5.30;;;;;;;21.19;50.36;101115.16;6185401;23;20021;-69
2023/08/10 09:26:17;;;;;;;5.95;5.45;;;;;;;21.29;51.18;101162.25;6198589;23;20450;-70
2023/08/10 09:28:45;;;;;;;5.50;5.20;;;;;;;21.15;49.74;101101.28;6169201;23;20036;-69
2023/08/10 09:31:12;;;;;;;5.78;5.47;;;;;;;21.57;50.12;101157.13;6202352;23;20037;-69
2023/08/10 09:33:41;;;;;;;6.97;5.50;;;;;;;21.47;50.48;101167.78;6182852;23;20525;-69
2023/08/10 09:36:10;;;;;;;6.65;5.57;;;;;;;21.73;50.63;101180.59;6201505;23;20076;-71
2023/08/10 09:38:37;;;;;;;5.80;5.50;;;;;;;21.85;50.00;101173.25;6156852;23;20019;-69
2023/08/10 09:41:14;;;;;;;5.57;5.35;;;;;;;21.75;49.48;101151.03;6200329;23;20024;-69
2023/08/10 09:43:44;;;;;;;5.88;5.57;;;;;;;;;;6167343;23;20044;-69
2023/08/10 09:46:12;;;;;;;5.53;5.22;;;;;;;22.05;49.34;101203.47;6154973;23;20095;-69
2023/08/10 09:48:40;;;;;;;5.78;5.47;;;;;;;21.47;47.77;101036.94;6177719;23;20013;-69
2023/08/10 09:51:10;;;;;;;5.80;5.50;;;;;;;21.57;47.74;101098.34;6173162;23;20025;-69
2023/08/10 09:53:36;;;;;;;5.72;5.43;;;;;;;21.34;48.31;101092.41;6183024;23;20016;-69
2023/08/10 09:56:09;;;;;;;6.00;5.50;;;;;;;21.16;49.97;101191.03;6173071;23;20027;-74
2023/08/10 09:58:37;;;;;;;6.10;5.70;;;;;;;21.06;50.21;101142.13;6178824;23;20288;-69
2023/08/10 10:01:05;;;;;;;5.60;5.30;;;;;;;21.46;49.99;101224.84;6201326;23;20008;-70
2023/08/10 10:03:33;;;;;;;5.68;5.40;;;;;;;21.11;51.50;101231.47;6174218;23;20016;-70
2023/08/10 10:06:01;;;;;;;5.70;5.40;;;;;;;21.52;52.02;101325.75;6201198;23;20039;-70
2023/08/10 10:08:29;;;;;;;6.03;5.65;;;;;;;20.40;51.12;101111.41;6167433;23;20008;-71
2023/08/10 10:11:05;;;;;;;6.07;5.68;;;;;;;20.72;51.53;101215.31;6204616;23;20020;-71
2023/08/10 10:13:32;;;;;;;5.85;5.55;;;;;;;20.97;51.16;101236.31;6196958;23;20020;-71
2023/08/10 10:16:00;;;;;;;5.97;5.57;;;;;;;20.98;51.22;101198.00;6206105;23;20070;-72
2023/08/10 10:18:27;;;;;;;6.55;5.63;;;;;;;21.07;51.74;101246.06;6198373;22;20050;-72
2023/08/10 10:20:54;;;;;;;5.50;5.20;;;;;;;21.25;52.00;101266.78;6200017;23;20692;-72
2023/08/10 10:23:21;;;;;;;5.63;5.22;;;;;;;21.37;52.53;101304.88;6198353;23;20019;-71
2023/08/10 10:25:59;;;;;;;5.80;5.50;;;;;;;20.85;53.51;101240.94;6175935;23;20073;-72
2023/08/10 10:28:27;;;;;;;5.70;5.30;;;;;;;21.12;51.12;101217.13;6198281;23;20620;-72
2023/08/10 10:30:56;;;;;;;5.68;5.38;;;;;;;21.48;51.74;101270.94;6172620;23;20021;-71
2023/08/10 10:33:25;;;;;;;5.93;5.55;;;;;;;21.30;51.22;101221.81;6200844;23;20469;-72
2023/08/10 10:36:10;;;;;;;5.50;5.20;;;;;;;21.76;51.30;101313.88;6176869;23;20613;-72
2023/08/10 10:38:46;;;;;;;5.70;5.40;;;;;;;21.99;51.13;101310.94;6174323;23;20150;-71
2023/08/10 10:41:27;;;;;;;6.20;5.80;;;;;;;21.66;51.05;101231.03;6174791;23;20020;-72
2023/08/10 10:43:53;;;;;;;5.97;5.47;;;;;;;21.57;51.18;101241.72;6200086;23;20043;-73
2023/08/10 10:46:32;;;;;;;5.78;5.47;;;;;;;21.81;50.12;101228.81;6199780;23;20025;-71
2023/08/10 10:49:00;;;;;;;6.05;5.65;;;;;;;22.02;49.94;101265.25;6173189;23;20008;-71
2023/08/10 10:51:29;;;;;;;6.32;5.93;;;;;;;22.24;50.56;101286.34;6201206;23;20032;-71
2023/08/10 10:53:56;;;;;;;5.45;5.15;;;;;;;22.89;49.54;101336.50;6175218;23;20008;-72
2023/08/10 10:56:26;;;;;;;6.55;6.15;;;;;;;22.45;48.98;101211.31;6175213;23;20041;-71
2023/08/10 10:58:53;;;;;;;6.75;6.35;;;;;;;21.87;50.10;101206.88;6178140;23;20041;-71
2023/08/10 11:01:22;;;;;;;7.85;6.97;;;;;;;20.99;51.63;101135.63;6199513;23;20024;-71
2023/08/10 11:03:54;;;;;;;12.60;7.93;;;;;;;21.80;51.02;101227.13;6202885;23;21358;-73
2023/08/10 11:06:23;;;;;;;11.37;8.40;;;;;;;22.11;49.90;101226.97;6200159;23;20026;-73
2023/08/10 11:08:51;;;;;;;10.90;8.90;;;;;;;22.27;49.95;101250.47;6200376;23;20027;-72
2023/08/10 11:11:18;;;;;;;17.17;10.00;;;;;;;22.42;49.61;101269.59;6202524;23;20638;-71
2023/08/10 11:13:44;;;;;;;10.48;8.10;;;;;;;21.76;49.88;101180.28;6197550;23;20017;-71
2023/08/10 11:16:10;;;;;;;12.20;8.43;;;;;;;22.27;50.23;101229.94;6200438;23;20027;-73
2023/08/10 11:18:42;;;;;;;11.52;8.32;;;;;;;21.88;49.73;101192.50;6199719;23;20457;-72
2023/08/10 11:21:09;;;;;;;8.48;7.68;;;;;;;22.61;50.45;101317.72;6171601;23;20027;-71
2023/08/10 11:23:36;;;;;;;8.30;7.50;;;;;;;22.64;49.73;101255.88;6200604;23;20044;-71
2023/08/10 11:26:02;;;;;;;10.10;7.65;;;;;;;22.38;49.68;101236.13;6197575;23;20023;-71